Time;durP1;ratioP1;P1;durP2;ratioP2;P2;SDS_P1;SDS_P2;PMS_P1;PMS_P2;Temp;Humidity;BMP_temperature;BMP_pressure;BME280_temperature;BME280_humidity;BME280_pressure;Samples;Min_cycle;Max_cycle;Signal;HPM_P1;HPM_P2
2023/01/11 00:00:38;;;;;;;3.57;1.50;;;4.60;99.90;;;;;;5015310;28;20185;-80
2023/01/11 00:03:04;;;;;;;4.17;1.37;;;4.60;99.90;;;;;;5033081;28;20216;-80
2023/01/11 00:05:30;;;;;;;5.23;1.60;;;4.60;99.90;;;;;;5015000;28;20687;-81
2023/01/11 00:07:56;;;;;;;3.40;1.40;;;4.60;99.90;;;;;;5019069;28;20193;-80
2023/01/11 00:10:22;;;;;;;4.73;1.43;;;4.60;99.90;;;;;;5012483;28;20599;-81
2023/01/11 00:12:47;;;;;;;3.83;1.40;;;4.60;99.90;;;;;;5012906;28;20206;-80
2023/01/11 00:15:14;;;;;;;3.47;1.50;;;4.50;99.90;;;;;;4995753;28;20202;-80
2023/01/11 00:17:40;;;;;;;3.63;1.67;;;4.50;99.90;;;;;;5013421;28;20174;-81
2023/01/11 00:20:07;;;;;;;3.87;1.80;;;4.50;99.90;;;;;;4995998;28;20657;-80
2023/01/11 00:22:33;;;;;;;4.40;1.90;;;4.50;99.90;;;;;;4995522;28;20534;-81
2023/01/11 00:24:58;;;;;;;5.73;1.73;;;4.50;99.90;;;;;;4995428;28;20294;-80
2023/01/11 00:27:24;;;;;;;5.33;1.70;;;4.50;99.90;;;;;;4995897;28;20174;-81
2023/01/11 00:29:49;;;;;;;3.80;1.90;;;4.50;99.90;;;;;;5012927;28;20594;-81
2023/01/11 00:32:15;;;;;;;4.17;1.70;;;4.50;99.90;;;;;;4995535;28;20626;-82
2023/01/11 00:34:40;;;;;;;3.30;1.40;;;4.50;99.90;;;;;;4995926;28;20191;-80
2023/01/11 00:37:06;;;;;;;5.67;1.60;;;4.60;99.90;;;;;;4995769;28;20213;-80
2023/01/11 00:39:31;;;;;;;3.60;1.57;;;4.60;99.90;;;;;;5013095;28;20197;-81
2023/01/11 00:50:09;;;;;;;3.27;1.40;;;4.70;99.90;;;;;;5012908;28;20229;-80
2023/01/11 00:52:35;;;;;;;3.13;1.30;;;4.60;99.90;;;;;;4995531;28;20293;-80
2023/01/11 00:55:00;;;;;;;3.93;1.60;;;4.70;99.90;;;;;;4995123;28;20728;-81
2023/01/11 00:57:26;;;;;;;4.37;1.43;;;4.70;99.90;;;;;;5013363;28;20178;-81
2023/01/11 00:59:51;;;;;;;4.03;1.33;;;4.70;99.90;;;;;;4995122;28;20178;-80
2023/01/11 01:02:17;;;;;;;5.23;1.50;;;4.70;99.90;;;;;;5013998;28;20186;-81
2023/01/11 01:07:16;;;;;;;4.40;1.60;;;4.70;99.90;;;;;;5056761;22;20288;-80
2023/01/11 01:09:42;;;;;;;3.10;1.40;;;4.70;99.90;;;;;;5018188;28;20166;-80
2023/01/11 01:12:08;;;;;;;4.50;1.40;;;4.70;99.90;;;;;;5010311;28;20216;-80
2023/01/11 01:14:33;;;;;;;3.43;1.50;;;4.70;99.90;;;;;;5006633;28;20174;-80
2023/01/11 01:17:07;;;;;;;3.30;1.30;;;4.80;99.90;;;;;;4981149;28;20219;-81
2023/01/11 01:19:36;;;;;;;4.20;1.67;;;4.70;99.90;;;;;;4978754;28;20179;-82
2023/01/11 01:22:02;;;;;;;2.90;1.43;;;4.70;99.90;;;;;;4978880;28;20236;-80
2023/01/11 01:24:29;;;;;;;3.37;1.67;;;4.70;99.90;;;;;;4978916;28;20175;-80
2023/01/11 01:26:56;;;;;;;3.47;1.70;;;4.70;99.90;;;;;;4996172;28;20203;-80
2023/01/11 01:29:21;;;;;;;3.23;1.40;;;4.70;99.90;;;;;;4978691;28;20225;-80
2023/01/11 01:31:47;;;;;;;2.43;1.40;;;4.80;99.90;;;;;;4978497;28;20241;-80
2023/01/11 01:34:13;;;;;;;2.90;1.33;;;4.80;99.90;;;;;;4978615;28;20175;-80
2023/01/11 01:36:39;;;;;;;2.87;1.40;;;4.80;99.90;;;;;;4978527;28;20257;-80
2023/01/11 01:39:05;;;;;;;2.33;1.40;;;4.80;99.90;;;;;;4978772;28;20190;-80
2023/01/11 01:41:32;;;;;;;2.83;1.60;;;4.80;99.90;;;;;;4978441;28;20176;-80
2023/01/11 01:44:00;;;;;;;4.53;1.60;;;4.90;99.90;;;;;;4978414;28;20187;-80
2023/01/11 01:46:31;;;;;;;3.17;1.50;;;4.90;99.90;;;;;;4995730;28;20199;-80
2023/01/11 01:49:10;;;;;;;2.77;1.73;;;4.90;99.90;;;;;;4978286;28;20207;-80
2023/01/11 01:51:49;;;;;;;3.60;1.53;;;4.90;99.90;;;;;;4978480;28;20193;-81
2023/01/11 01:54:19;;;;;;;2.73;1.37;;;4.90;99.90;;;;;;4995590;28;20646;-80
2023/01/11 01:56:52;;;;;;;2.70;1.40;;;4.90;99.90;;;;;;4981247;28;20198;-80
2023/01/11 01:59:20;;;;;;;3.97;1.83;;;4.90;99.90;;;;;;4989264;28;20183;-80
2023/01/11 02:01:46;;;;;;;4.53;2.00;;;5.00;99.90;;;;;;5015171;28;20179;-80
2023/01/11 02:04:37;;;;;;;4.10;1.50;;;4.90;99.90;;;;;;5015108;28;20732;-80
2023/01/11 02:07:13;;;;;;;2.67;1.70;;;4.90;99.90;;;;;;5015058;28;20218;-80
2023/01/11 02:09:48;;;;;;;4.03;1.80;;;4.90;99.90;;;;;;4997403;28;20317;-78
2023/01/11 02:12:14;;;;;;;3.73;1.87;;;4.90;99.90;;;;;;4997549;28;20229;-80
2023/01/11 02:14:42;;;;;;;5.63;1.80;;;4.90;99.90;;;;;;4996488;28;20171;-78
2023/01/11 02:17:08;;;;;;;3.20;1.77;;;4.90;99.90;;;;;;4997161;28;20197;-82
2023/01/11 02:19:54;;;;;;;3.87;1.60;;;4.90;99.90;;;;;;4997391;28;20261;-81
2023/01/11 02:22:51;;;;;;;2.67;1.73;;;4.90;99.90;;;;;;5015009;28;20203;-80
2023/01/11 02:25:34;;;;;;;3.97;1.70;;;4.90;99.90;;;;;;4997105;28;20198;-80
2023/01/11 02:28:11;;;;;;;5.63;2.00;;;4.90;99.90;;;;;;4997035;28;20550;-80
2023/01/11 02:30:55;;;;;;;2.30;1.90;;;4.90;99.90;;;;;;5014340;28;20224;-80
2023/01/11 02:33:58;;;;;;;3.57;2.13;;;4.80;99.90;;;;;;4997446;28;20179;-80
2023/01/11 02:36:26;;;;;;;4.17;2.00;;;4.80;99.90;;;;;;4996974;28;20190;-80
2023/01/11 02:39:12;;;;;;;4.37;2.30;;;4.80;99.90;;;;;;4996674;28;20174;-82
2023/01/11 02:45:01;;;;;;;4.50;2.47;;;4.70;99.90;;;;;;5014591;28;20194;-80
2023/01/11 02:47:44;;;;;;;3.23;2.17;;;4.70;99.90;;;;;;5014569;28;20191;-82
2023/01/11 02:50:18;;;;;;;5.47;2.07;;;4.70;99.90;;;;;;5014229;28;20585;-80
2023/01/11 02:52:49;;;;;;;5.37;2.30;;;4.70;99.90;;;;;;4996705;28;20198;-80
2023/01/11 02:55:20;;;;;;;4.33;2.30;;;4.70;99.90;;;;;;4996619;28;20205;-80
2023/01/11 02:57:47;;;;;;;2.67;2.27;;;4.70;99.90;;;;;;4996566;28;20198;-80
2023/01/11 03:00:15;;;;;;;3.83;2.73;;;4.70;99.90;;;;;;5014022;28;20174;-81
2023/01/11 03:02:41;;;;;;;4.43;2.67;;;4.70;99.90;;;;;;4996793;28;20178;-81
2023/01/11 03:05:11;;;;;;;3.67;2.53;;;4.70;99.90;;;;;;5013830;28;20182;-81
2023/01/11 03:07:49;;;;;;;3.70;2.60;;;4.70;99.90;;;;;;4996493;28;20182;-82
2023/01/11 03:10:30;;;;;;;4.50;2.70;;;4.70;99.90;;;;;;4996529;28;20257;-80
2023/01/11 03:13:40;;;;;;;2.60;2.40;;;4.80;99.90;;;;;;4996416;28;20604;-80
2023/01/11 03:16:23;;;;;;;2.83;2.50;;;4.80;99.90;;;;;;4933972;29;20211;-80
2023/01/11 03:19:22;;;;;;;2.60;2.30;;;4.80;99.90;;;;;;4994097;28;20210;-81
2023/01/11 03:22:04;;;;;;;3.97;1.93;;;4.80;99.90;;;;;;4996016;28;20171;-81
2023/01/11 03:24:48;;;;;;;2.97;2.20;;;4.80;99.90;;;;;;4995824;28;20737;-82
2023/01/11 03:27:31;;;;;;;4.27;2.57;;;4.90;99.90;;;;;;4996098;28;20191;-80
2023/01/11 03:30:12;;;;;;;2.83;2.17;;;4.90;99.90;;;;;;5013395;28;20251;-80
2023/01/11 03:32:44;;;;;;;4.30;2.13;;;5.00;99.90;;;;;;4995960;28;20704;-81
2023/01/11 03:35:14;;;;;;;3.73;2.00;;;5.00;99.90;;;;;;5013685;28;20166;-80
2023/01/11 03:37:56;;;;;;;3.00;2.20;;;5.00;99.90;;;;;;4995986;28;20254;-81
2023/01/11 03:40:33;;;;;;;2.87;2.20;;;5.00;99.90;;;;;;4995778;28;20266;-81
2023/01/11 03:43:10;;;;;;;3.60;2.20;;;5.00;99.90;;;;;;5013353;28;20166;-80
2023/01/11 03:45:55;;;;;;;4.03;2.13;;;5.00;99.90;;;;;;4995464;28;20742;-81
2023/01/11 03:48:28;;;;;;;4.33;2.23;;;5.10;99.90;;;;;;4995577;28;20676;-81
2023/01/11 03:50:56;;;;;;;3.80;2.30;;;5.10;99.90;;;;;;5013094;28;20656;-81
2023/01/11 03:53:24;;;;;;;2.30;2.10;;;5.10;99.90;;;;;;5013177;28;20234;-80
2023/01/11 03:55:54;;;;;;;4.63;2.20;;;5.10;99.90;;;;;;5012901;28;20183;-81
2023/01/11 03:58:20;;;;;;;4.33;2.10;;;5.10;99.90;;;;;;4995967;28;20159;-78
2023/01/11 04:00:47;;;;;;;2.73;2.13;;;5.10;99.90;;;;;;4995285;28;20174;-81
2023/01/11 04:03:13;;;;;;;3.87;2.37;;;5.10;99.90;;;;;;5012951;28;20547;-81
2023/01/11 04:05:42;;;;;;;3.07;2.07;;;5.10;99.90;;;;;;5012718;28;20227;-81
2023/01/11 04:08:09;;;;;;;2.23;1.90;;;5.20;99.90;;;;;;5012811;28;20166;-81
2023/01/11 04:10:36;;;;;;;2.80;2.10;;;5.20;99.90;;;;;;5012509;28;20179;-81
2023/01/11 04:13:01;;;;;;;2.33;2.10;;;5.20;99.90;;;;;;4995332;28;20289;-81
2023/01/11 04:15:29;;;;;;;2.13;1.93;;;5.20;99.90;;;;;;4995051;28;20233;-81
2023/01/11 04:17:55;;;;;;;3.03;2.07;;;5.20;99.90;;;;;;5012846;28;20171;-81
2023/01/11 04:20:20;;;;;;;2.43;2.10;;;5.20;99.90;;;;;;4994965;28;20175;-81
2023/01/11 04:22:46;;;;;;;2.53;1.67;;;5.30;99.90;;;;;;5012633;28;20177;-81
2023/01/11 04:25:11;;;;;;;1.77;1.63;;;5.30;99.90;;;;;;5012509;28;20230;-80
2023/01/11 04:27:37;;;;;;;1.63;1.53;;;5.40;99.90;;;;;;4995636;28;20202;-80
2023/01/11 04:30:03;;;;;;;2.37;1.40;;;5.50;99.90;;;;;;4995087;28;20642;-80
2023/01/11 04:32:28;;;;;;;3.50;1.70;;;5.50;99.90;;;;;;4994891;28;20218;-80
2023/01/11 04:34:54;;;;;;;1.87;1.60;;;5.60;99.90;;;;;;5012559;28;20641;-80
2023/01/11 04:37:19;;;;;;;1.83;1.50;;;5.60;99.90;;;;;;4993239;28;20171;-81
2023/01/11 04:39:45;;;;;;;2.03;1.70;;;5.60;99.90;;;;;;4994662;28;20179;-80
2023/01/11 04:42:20;;;;;;;2.17;1.57;;;5.70;99.90;;;;;;5012339;28;20210;-81
2023/01/11 04:44:47;;;;;;;2.50;1.50;;;5.80;99.90;;;;;;5012594;28;20178;-81
2023/01/11 04:47:17;;;;;;;4.40;1.70;;;5.90;99.90;;;;;;5012239;28;20739;-81
2023/01/11 04:49:44;;;;;;;3.10;1.80;;;5.80;99.90;;;;;;5012196;28;20227;-80
2023/01/11 04:52:10;;;;;;;2.20;1.80;;;5.80;99.90;;;;;;4994518;28;20230;-82
2023/01/11 04:54:36;;;;;;;2.03;1.57;;;5.80;99.90;;;;;;5012545;28;20254;-81
2023/01/11 04:57:02;;;;;;;1.80;1.50;;;5.80;99.90;;;;;;5012052;28;20192;-81
2023/01/11 04:59:28;;;;;;;3.00;1.60;;;5.80;99.90;;;;;;4994776;28;20174;-81
2023/01/11 05:01:54;;;;;;;2.00;1.67;;;5.70;99.90;;;;;;4994633;28;20176;-80
2023/01/11 05:04:19;;;;;;;2.03;1.73;;;5.80;99.90;;;;;;5012192;28;20176;-81
2023/01/11 05:06:45;;;;;;;2.23;1.80;;;5.80;99.90;;;;;;5011964;28;20305;-80
2023/01/11 05:09:13;;;;;;;2.10;1.90;;;5.80;99.90;;;;;;4994838;28;20175;-81
2023/01/11 05:11:39;;;;;;;2.93;1.90;;;5.80;99.90;;;;;;5011885;28;20200;-81
2023/01/11 05:14:04;;;;;;;1.63;1.53;;;5.90;99.90;;;;;;4994716;28;20656;-81
2023/01/11 05:16:30;;;;;;;2.80;1.90;;;5.90;99.90;;;;;;5012288;28;20194;-81
2023/01/11 05:18:58;;;;;;;3.13;1.70;;;5.90;99.90;;;;;;4994511;28;20172;-81
2023/01/11 05:21:26;;;;;;;1.70;1.60;;;5.90;99.90;;;;;;4994232;28;20183;-80
2023/01/11 05:23:52;;;;;;;2.60;1.87;;;6.00;99.90;;;;;;4991932;28;20191;-80
2023/01/11 05:26:23;;;;;;;2.33;1.80;;;6.00;99.90;;;;;;4982810;28;20199;-81
2023/01/11 05:28:50;;;;;;;2.67;2.07;;;6.00;99.90;;;;;;4992515;28;20173;-81
2023/01/11 05:31:16;;;;;;;2.93;1.97;;;6.00;99.90;;;;;;4974587;28;20263;-80
2023/01/11 05:33:42;;;;;;;2.03;1.83;;;6.00;99.90;;;;;;5001925;28;20175;-81
2023/01/11 05:36:12;;;;;;;3.73;2.00;;;6.10;99.90;;;;;;4990581;28;20195;-81
2023/01/11 05:38:38;;;;;;;2.67;1.87;;;6.10;99.90;;;;;;4994350;28;20697;-80
2023/01/11 05:41:06;;;;;;;2.10;1.90;;;6.10;99.90;;;;;;4994055;28;20177;-82
2023/01/11 05:45:27;;;;;;;2.07;1.90;;;6.10;99.90;;;;;;5012195;28;20172;-81
2023/01/11 05:46:19;;;;;;;2.10;1.90;;;6.10;99.90;;;;;;5011456;28;20283;-80
2023/01/11 05:48:45;;;;;;;2.30;2.10;;;6.10;99.90;;;;;;5011848;28;20199;-81
2023/01/11 05:51:10;;;;;;;2.23;2.03;;;6.20;99.90;;;;;;5015316;28;20170;-81
2023/01/11 05:53:36;;;;;;;3.60;2.03;;;6.20;99.90;;;;;;4997818;28;20208;-81
2023/01/11 05:56:01;;;;;;;3.80;2.00;;;6.20;99.90;;;;;;4997650;28;20248;-80
2023/01/11 05:58:27;;;;;;;2.30;1.90;;;6.20;99.90;;;;;;5015409;28;20214;-81
2023/01/11 06:00:54;;;;;;;2.07;1.83;;;6.20;99.90;;;;;;5015073;28;20182;-81
2023/01/11 06:03:21;;;;;;;2.20;2.00;;;6.20;99.90;;;;;;4995822;28;20280;-81
2023/01/11 06:05:47;;;;;;;2.30;2.10;;;6.20;99.90;;;;;;5008625;28;20324;-81
2023/01/11 06:08:13;;;;;;;3.03;2.43;;;6.20;99.90;;;;;;5015337;28;20214;-80
2023/01/11 06:10:39;;;;;;;2.63;2.07;;;6.20;99.90;;;;;;4997620;28;20239;-80
2023/01/11 06:15:48;;;;;;;2.50;2.10;;;6.20;99.90;;;;;;5015959;28;20203;-79
2023/01/11 06:18:14;;;;;;;2.60;2.27;;;6.20;99.90;;;;;;4997447;28;20181;-79
2023/01/11 06:20:40;;;;;;;2.90;2.17;;;6.20;99.90;;;;;;4997501;28;20173;-80
2023/01/11 06:23:05;;;;;;;2.70;1.90;;;6.30;99.90;;;;;;4997851;28;20650;-80
2023/01/11 06:25:36;;;;;;;2.77;2.00;;;6.30;99.90;;;;;;4997314;28;20204;-79
2023/01/11 06:28:04;;;;;;;3.33;2.00;;;6.30;99.90;;;;;;4997180;28;20208;-80
2023/01/11 06:30:30;;;;;;;2.33;2.00;;;6.30;99.90;;;;;;4996981;28;20175;-79
2023/01/11 06:33:04;;;;;;;3.30;1.90;;;6.30;99.90;;;;;;4997087;28;20594;-79
2023/01/11 06:35:35;;;;;;;2.90;2.00;;;6.30;99.90;;;;;;5014819;28;20199;-79
2023/01/11 06:38:01;;;;;;;2.53;1.93;;;6.30;99.90;;;;;;4997148;28;20603;-79
2023/01/11 06:40:28;;;;;;;2.13;1.93;;;6.30;99.90;;;;;;5014457;28;20719;-79
2023/01/11 06:42:53;;;;;;;2.30;2.00;;;6.30;99.90;;;;;;4996970;28;20567;-79
2023/01/11 06:45:19;;;;;;;2.23;2.03;;;6.30;99.90;;;;;;5014598;28;20201;-79
2023/01/11 06:47:45;;;;;;;2.83;2.20;;;6.30;99.90;;;;;;5014837;28;20212;-79
2023/01/11 06:50:10;;;;;;;3.47;2.23;;;6.30;99.90;;;;;;5014311;28;20176;-80
2023/01/11 06:52:36;;;;;;;2.10;1.90;;;6.30;99.90;;;;;;5014281;28;20218;-79
2023/01/11 06:55:02;;;;;;;2.90;2.20;;;6.30;99.90;;;;;;4996858;28;20270;-79
2023/01/11 06:57:28;;;;;;;2.93;2.50;;;6.30;99.90;;;;;;4996714;28;20652;-79
2023/01/11 06:59:53;;;;;;;3.67;2.50;;;6.30;99.90;;;;;;5013548;28;20185;-79
2023/01/11 07:02:19;;;;;;;2.50;2.20;;;6.30;99.90;;;;;;4996748;28;20191;-79
2023/01/11 07:04:44;;;;;;;2.77;2.57;;;6.30;99.90;;;;;;4996788;28;20219;-79
2023/01/11 07:07:10;;;;;;;2.70;2.50;;;6.20;99.90;;;;;;5084429;22;20270;-80
2023/01/11 07:09:36;;;;;;;2.63;2.20;;;6.20;99.90;;;;;;5016202;28;20174;-74
2023/01/11 07:12:01;;;;;;;3.10;2.50;;;6.20;99.90;;;;;;5016024;28;20208;-82
2023/01/11 07:14:27;;;;;;;2.53;2.20;;;6.20;99.90;;;;;;5033773;28;20189;-81
2023/01/11 07:16:52;;;;;;;2.70;2.20;;;6.20;99.90;;;;;;5002850;28;20234;-81
2023/01/11 07:19:18;;;;;;;2.27;1.97;;;6.20;99.90;;;;;;4996456;28;20266;-81
2023/01/11 07:21:43;;;;;;;2.30;2.10;;;6.20;99.90;;;;;;5013863;28;20180;-82
2023/01/11 07:24:09;;;;;;;2.20;2.00;;;6.20;99.90;;;;;;5014024;28;20183;-81
2023/01/11 07:26:40;;;;;;;2.40;1.80;;;6.30;99.90;;;;;;5013920;28;20715;-81
2023/01/11 07:29:06;;;;;;;2.83;2.07;;;6.30;99.90;;;;;;4996707;28;20615;-79
2023/01/11 07:31:31;;;;;;;1.93;1.73;;;6.30;99.90;;;;;;4996262;28;20274;-80
2023/01/11 07:33:57;;;;;;;2.10;1.60;;;6.30;99.90;;;;;;4997946;28;20572;-80
2023/01/11 07:36:23;;;;;;;1.57;1.40;;;6.30;99.90;;;;;;4996627;28;20201;-80
2023/01/11 07:38:48;;;;;;;1.87;1.53;;;6.30;99.90;;;;;;5013493;28;20216;-84
2023/01/11 07:43:58;;;;;;;1.37;1.27;;;6.40;99.90;;;;;;5013787;28;20220;-85
2023/01/11 07:46:23;;;;;;;1.57;1.47;;;6.40;99.90;;;;;;5013557;28;20198;-86
2023/01/11 07:48:49;;;;;;;1.30;1.20;;;6.40;99.90;;;;;;4986493;28;20181;-86
2023/01/11 07:51:19;;;;;;;1.20;1.10;;;6.40;99.90;;;;;;5002400;28;20246;-85
2023/01/11 07:53:47;;;;;;;1.80;1.07;;;6.50;99.90;;;;;;5013556;28;20191;-85
2023/01/11 07:56:13;;;;;;;1.07;1.00;;;6.50;99.90;;;;;;5013169;28;20186;-86
2023/01/11 07:58:38;;;;;;;2.03;1.40;;;6.60;99.90;;;;;;4995583;28;20233;-86
2023/01/11 08:01:04;;;;;;;1.30;1.20;;;6.60;99.90;;;;;;4995429;28;20186;-86
2023/01/11 08:03:30;;;;;;;1.40;1.30;;;6.60;99.90;;;;;;5013398;28;20182;-86
2023/01/11 08:05:56;;;;;;;1.30;1.20;;;6.60;99.90;;;;;;5013633;28;20671;-85
2023/01/11 08:08:21;;;;;;;2.70;1.23;;;6.70;99.90;;;;;;5010128;28;20185;-87
2023/01/11 08:14:37;;;;;;;1.47;1.37;;;6.70;99.90;;;;;;5001265;28;20184;-85
2023/01/11 08:16:17;;;;;;;1.40;1.23;;;6.70;99.90;;;;;;4998474;28;20297;-84
2023/01/11 08:18:43;;;;;;;2.03;1.40;;;6.80;99.90;;;;;;4999118;28;20221;-83
2023/01/11 08:21:08;;;;;;;1.87;1.20;;;6.80;99.90;;;;;;4974461;28;20232;-83
2023/01/11 08:23:34;;;;;;;1.40;1.30;;;6.90;99.90;;;;;;4974353;28;20186;-83
2023/01/11 08:26:00;;;;;;;2.00;1.10;;;6.90;99.90;;;;;;4974798;28;20673;-82
2023/01/11 08:28:25;;;;;;;1.00;1.00;;;6.90;99.90;;;;;;4974251;28;20187;-83
2023/01/11 08:30:51;;;;;;;1.17;1.07;;;7.00;99.90;;;;;;4973520;28;20186;-83
2023/01/11 08:33:17;;;;;;;1.50;1.10;;;6.90;99.90;;;;;;4991934;28;20705;-85
2023/01/11 08:35:42;;;;;;;0.93;0.93;;;6.90;99.90;;;;;;4993451;28;20202;-84
2023/01/11 08:38:08;;;;;;;1.20;1.00;;;7.00;99.90;;;;;;4993125;28;20213;-85
2023/01/11 08:40:34;;;;;;;0.97;0.90;;;7.00;99.90;;;;;;4975233;28;20179;-84
2023/01/11 08:42:59;;;;;;;1.10;0.97;;;7.10;99.90;;;;;;4992892;28;20206;-84
2023/01/11 08:45:25;;;;;;;0.80;0.80;;;7.00;99.90;;;;;;4975170;28;20183;-86
2023/01/11 08:47:52;;;;;;;1.40;0.80;;;7.00;99.90;;;;;;4992844;28;20179;-84
2023/01/11 08:50:18;;;;;;;0.70;0.70;;;7.10;99.90;;;;;;4975337;28;20269;-85
2023/01/11 08:52:43;;;;;;;0.67;0.67;;;7.00;99.90;;;;;;4978420;28;20213;-85
2023/01/11 08:55:09;;;;;;;0.70;0.70;;;7.10;99.90;;;;;;5012574;28;20178;-84
2023/01/11 08:57:35;;;;;;;0.70;0.70;;;7.00;99.90;;;;;;4994779;28;20199;-80
2023/01/11 09:00:03;;;;;;;0.80;0.80;;;7.00;99.90;;;;;;5012303;28;20189;-85
2023/01/11 09:02:29;;;;;;;0.80;0.80;;;7.00;99.90;;;;;;4994863;28;20209;-82
2023/01/11 09:04:54;;;;;;;0.60;0.60;;;7.00;99.90;;;;;;4994897;28;20217;-85
2023/01/11 09:07:20;;;;;;;0.90;0.90;;;7.00;99.90;;;;;;4995702;28;20217;-85
2023/01/11 09:09:46;;;;;;;0.70;0.70;;;7.00;99.90;;;;;;5017101;28;20192;-84
2023/01/11 09:12:13;;;;;;;1.30;1.20;;;7.00;99.90;;;;;;4997296;28;20202;-84
2023/01/11 09:14:39;;;;;;;1.27;0.70;;;7.10;99.90;;;;;;5014150;28;20190;-84
2023/01/11 09:17:04;;;;;;;0.90;0.70;;;7.10;99.90;;;;;;4997461;28;20199;-84
2023/01/11 09:19:32;;;;;;;0.87;0.87;;;7.10;99.90;;;;;;5013607;28;20171;-84
2023/01/11 09:22:01;;;;;;;1.63;0.80;;;7.10;99.90;;;;;;4994869;28;20260;-83
2023/01/11 09:24:27;;;;;;;1.37;0.80;;;7.10;99.90;;;;;;4998131;28;20186;-84
2023/01/11 09:26:52;;;;;;;0.63;0.63;;;7.10;99.90;;;;;;4998597;28;20214;-85
2023/01/11 09:29:18;;;;;;;0.60;0.60;;;7.20;99.90;;;;;;4998475;28;20193;-85
2023/01/11 09:31:44;;;;;;;0.60;0.60;;;7.30;99.90;;;;;;4998395;28;20260;-85
2023/01/11 09:34:11;;;;;;;0.60;0.60;;;7.40;99.90;;;;;;5015948;28;20179;-85
2023/01/11 09:36:39;;;;;;;1.30;0.63;;;7.40;99.90;;;;;;4998646;28;20236;-85
2023/01/11 09:39:07;;;;;;;1.83;1.60;;;7.50;99.90;;;;;;5016003;28;20179;-83
2023/01/11 09:42:00;;;;;;;0.60;0.60;;;7.50;99.90;;;;;;5015710;28;20245;-83
2023/01/11 09:44:28;;;;;;;0.80;0.80;;;7.60;99.90;;;;;;5016198;28;20225;-83
2023/01/11 09:47:16;;;;;;;1.40;0.70;;;7.60;99.90;;;;;;4998154;28;20216;-82
2023/01/11 09:49:53;;;;;;;0.50;0.50;;;7.60;99.90;;;;;;4997947;28;20225;-84
2023/01/11 09:52:41;;;;;;;0.73;0.60;;;7.60;99.90;;;;;;4998136;28;20621;-84
2023/01/11 09:55:23;;;;;;;0.50;0.50;;;7.60;99.90;;;;;;5016040;28;20163;-83
2023/01/11 09:58:27;;;;;;;0.57;0.57;;;7.60;99.90;;;;;;5015736;28;20167;-84
2023/01/11 10:01:09;;;;;;;0.60;0.60;;;7.70;99.90;;;;;;5015531;28;20232;-84
2023/01/11 10:03:57;;;;;;;1.27;0.70;;;7.60;99.90;;;;;;5015664;28;20175;-84
2023/01/11 10:06:42;;;;;;;1.33;0.70;;;7.70;99.90;;;;;;4997673;28;20215;-83
2023/01/11 10:09:31;;;;;;;0.70;0.70;;;7.70;99.90;;;;;;4998152;28;20175;-84
2023/01/11 10:12:15;;;;;;;0.70;0.70;;;7.70;99.90;;;;;;4998373;28;20656;-83
2023/01/11 10:15:04;;;;;;;0.70;0.60;;;7.80;99.90;;;;;;4997808;28;20210;-83
2023/01/11 10:17:42;;;;;;;0.90;0.73;;;7.70;99.90;;;;;;4997939;28;20286;-80
2023/01/11 10:20:26;;;;;;;0.60;0.60;;;7.80;99.90;;;;;;5015260;28;20179;-84
2023/01/11 10:23:03;;;;;;;0.63;0.60;;;7.80;99.90;;;;;;5015214;28;20293;-84
2023/01/11 10:25:41;;;;;;;2.60;0.93;;;7.90;99.90;;;;;;5015592;28;20265;-84
2023/01/11 10:28:28;;;;;;;1.00;1.00;;;7.90;99.90;;;;;;5015144;28;20180;-83
2023/01/11 10:34:04;;;;;;;0.73;0.73;;;8.00;99.90;;;;;;5013258;28;20203;-84
2023/01/11 10:37:22;;;;;;;;;;;;;;;;;;;;;
2023/01/11 10:43:02;;;;;;;0.90;0.90;;;8.10;99.90;;;;;;5015190;28;20611;-83
2023/01/11 10:45:48;;;;;;;1.90;0.77;;;8.10;99.90;;;;;;4997506;28;20189;-83
2023/01/11 10:48:41;;;;;;;1.10;0.60;;;8.10;99.90;;;;;;5014743;28;20184;-83
2023/01/11 10:51:24;;;;;;;0.70;0.70;;;8.10;99.90;;;;;;4997295;28;20183;-84
2023/01/11 10:54:12;;;;;;;0.73;0.73;;;8.10;99.90;;;;;;4997737;28;20180;-84
2023/01/11 10:56:56;;;;;;;1.57;0.90;;;8.20;99.90;;;;;;4997164;28;20196;-84
2023/01/11 10:59:42;;;;;;;1.40;1.00;;;8.20;99.90;;;;;;5014858;28;20177;-83
2023/01/11 11:02:45;;;;;;;0.90;0.90;;;8.20;99.90;;;;;;5014622;28;20247;-83
2023/01/11 11:05:48;;;;;;;1.50;1.40;;;8.20;99.90;;;;;;4996862;28;20187;-84
2023/01/11 11:08:29;;;;;;;1.73;1.07;;;8.20;99.90;;;;;;4997191;28;20221;-83
2023/01/11 11:11:12;;;;;;;1.63;1.20;;;8.20;99.90;;;;;;4993906;28;20192;-83
2023/01/11 11:14:04;;;;;;;1.03;0.90;;;8.20;99.90;;;;;;4996559;28;20183;-83
2023/01/11 11:17:13;;;;;;;0.80;0.80;;;8.20;99.90;;;;;;5013573;28;20245;-83
2023/01/11 11:19:39;;;;;;;1.17;1.07;;;8.20;99.90;;;;;;4953418;29;20366;-83
2023/01/11 11:22:05;;;;;;;1.20;1.10;;;8.20;99.90;;;;;;4984188;28;20274;-83
2023/01/11 11:24:44;;;;;;;1.07;1.00;;;8.20;99.90;;;;;;5013937;28;20184;-82
2023/01/11 11:27:15;;;;;;;1.20;1.10;;;8.30;99.90;;;;;;5014219;28;20193;-83
2023/01/11 11:29:47;;;;;;;1.20;1.10;;;8.20;99.90;;;;;;5013983;28;20169;-84
2023/01/11 11:32:35;;;;;;;1.43;1.20;;;8.30;99.90;;;;;;4996800;28;20223;-83
2023/01/11 11:35:01;;;;;;;1.10;1.00;;;8.30;99.90;;;;;;5014019;28;20548;-83
2023/01/11 11:37:44;;;;;;;1.20;1.10;;;8.30;99.90;;;;;;4996182;28;20287;-83
2023/01/11 11:40:36;;;;;;;1.20;1.10;;;8.30;99.90;;;;;;4996406;28;20245;-82
2023/01/11 11:43:08;;;;;;;1.30;1.20;;;8.30;99.90;;;;;;4996227;28;20210;-82
2023/01/11 11:45:33;;;;;;;2.53;2.10;;;8.30;99.90;;;;;;4996435;28;20186;-81
2023/01/11 11:48:01;;;;;;;2.57;1.90;;;8.30;99.90;;;;;;4996588;28;20181;-82
2023/01/11 11:50:27;;;;;;;1.83;1.50;;;8.30;99.90;;;;;;4996164;28;20184;-82
2023/01/11 11:53:01;;;;;;;1.30;1.20;;;8.40;99.90;;;;;;5013879;28;20197;-86
2023/01/11 11:55:30;;;;;;;1.50;1.30;;;8.40;99.90;;;;;;4995811;28;20206;-83
2023/01/11 11:57:58;;;;;;;1.63;1.33;;;8.40;99.90;;;;;;4995970;28;20223;-83
2023/01/11 12:00:28;;;;;;;1.67;1.57;;;8.50;99.90;;;;;;4995445;28;20173;-82
2023/01/11 12:03:00;;;;;;;1.30;1.20;;;8.60;99.90;;;;;;5013707;28;20197;-83
2023/01/11 12:05:25;;;;;;;1.37;1.27;;;8.60;99.90;;;;;;5013864;28;20659;-84
2023/01/11 12:07:52;;;;;;;1.60;1.27;;;8.70;99.90;;;;;;5013190;28;20177;-82
2023/01/11 12:10:22;;;;;;;1.23;1.10;;;8.80;99.90;;;;;;4995645;28;20219;-83
2023/01/11 12:12:55;;;;;;;1.40;1.10;;;8.80;99.90;;;;;;5013310;28;20205;-84
2023/01/11 12:15:25;;;;;;;2.33;1.10;;;8.70;99.90;;;;;;5013286;28;20172;-84
2023/01/11 12:17:51;;;;;;;1.90;0.93;;;8.80;99.90;;;;;;4995766;28;20170;-82
2023/01/11 12:20:22;;;;;;;1.53;1.10;;;8.90;99.90;;;;;;5013977;28;20178;-79
2023/01/11 12:22:49;;;;;;;2.50;1.10;;;9.00;99.90;;;;;;4995778;28;20177;-79
2023/01/11 12:25:24;;;;;;;1.40;1.20;;;9.00;99.90;;;;;;5013092;28;20274;-78
2023/01/11 12:28:37;;;;;;;4.47;3.80;;;9.00;99.90;;;;;;5012877;28;20164;-78
2023/01/11 12:31:11;;;;;;;1.87;1.40;;;8.90;99.90;;;;;;4999096;28;20189;-77
2023/01/11 12:34:05;;;;;;;1.93;1.33;;;9.10;99.90;;;;;;5012602;28;20205;-78
2023/01/11 12:36:42;;;;;;;1.10;1.00;;;9.20;99.90;;;;;;5012431;28;20198;-78
2023/01/11 12:39:21;;;;;;;1.70;1.60;;;9.40;99.90;;;;;;5012356;28;20239;-78
2023/01/11 12:42:25;;;;;;;2.63;1.10;;;9.60;99.90;;;;;;4995965;28;20177;-83
2023/01/11 12:44:56;;;;;;;1.30;1.20;;;9.40;99.90;;;;;;5003599;28;20192;-82
2023/01/11 12:47:40;;;;;;;1.00;0.80;;;9.20;99.90;;;;;;5014185;28;20200;-82
2023/01/11 12:50:31;;;;;;;1.10;1.00;;;9.00;99.90;;;;;;4996254;28;20276;-82
2023/01/11 12:53:09;;;;;;;0.80;0.80;;;8.80;99.90;;;;;;5006883;28;20222;-82
2023/01/11 12:55:50;;;;;;;0.77;0.73;;;8.60;99.90;;;;;;5014700;28;20172;-82
2023/01/11 12:58:40;;;;;;;1.00;0.90;;;8.60;99.90;;;;;;5016849;28;20237;-82
2023/01/11 13:01:29;;;;;;;0.80;0.80;;;8.50;99.90;;;;;;5002586;28;20256;-82
2023/01/11 13:04:19;;;;;;;0.87;0.87;;;8.50;99.90;;;;;;5002869;28;20179;-83
2023/01/11 13:07:00;;;;;;;0.93;0.90;;;8.50;99.90;;;;;;5051156;22;20603;-79
2023/01/11 13:09:32;;;;;;;0.73;0.73;;;8.40;99.90;;;;;;5021537;28;20172;-80
2023/01/11 13:12:15;;;;;;;2.40;1.10;;;8.40;99.90;;;;;;5020863;28;20301;-79
2023/01/11 13:14:46;;;;;;;1.20;1.10;;;8.40;99.90;;;;;;5018725;28;20252;-79
2023/01/11 13:17:18;;;;;;;2.60;1.20;;;8.40;99.90;;;;;;5018064;28;20208;-80
2023/01/11 13:19:54;;;;;;;1.30;1.20;;;8.40;99.90;;;;;;5002136;28;20604;-79
2023/01/11 13:22:27;;;;;;;2.30;1.50;;;8.40;99.90;;;;;;5001726;28;20599;-78
2023/01/11 13:24:54;;;;;;;1.33;1.20;;;8.40;99.90;;;;;;5019602;28;20168;-79
2023/01/11 13:27:22;;;;;;;1.47;1.37;;;8.40;99.90;;;;;;5001890;28;20224;-79
2023/01/11 13:29:54;;;;;;;1.57;1.40;;;8.40;99.90;;;;;;5019236;28;20260;-79
2023/01/11 13:32:27;;;;;;;1.77;1.67;;;8.40;99.90;;;;;;5001584;28;20552;-79
2023/01/11 13:35:00;;;;;;;2.03;1.60;;;8.40;99.90;;;;;;5019471;28;20216;-79
2023/01/11 13:37:31;;;;;;;2.37;2.03;;;8.30;99.90;;;;;;5019205;28;20197;-79
2023/01/11 13:40:20;;;;;;;2.70;2.10;;;8.40;99.90;;;;;;5001545;28;20167;-79
2023/01/11 13:42:50;;;;;;;2.93;1.50;;;8.40;99.90;;;;;;4983296;28;20186;-80
2023/01/11 13:45:30;;;;;;;2.43;2.20;;;8.40;99.90;;;;;;4998476;28;20717;-79
2023/01/11 13:48:04;;;;;;;1.60;1.50;;;8.40;99.90;;;;;;4999015;28;20198;-79
2023/01/11 13:50:53;;;;;;;2.00;1.80;;;8.40;99.90;;;;;;4992353;28;20532;-79